Time;durP1;ratioP1;P1;durP2;ratioP2;P2;SDS_P1;SDS_P2;PMS_P1;PMS_P2;Temp;Humidity;BMP_temperature;BMP_pressure;BME280_temperature;BME280_humidity;BME280_pressure;Samples;Min_cycle;Max_cycle;Signal;HPM_P1;HPM_P2
2023/01/25 00:01:51;;;;;;;9.10;4.45;;;;;;;;;;5141207;27;20046;-73
2023/01/25 00:04:22;;;;;;;8.95;4.60;;;;;;;;;;5133923;27;20372;-74
2023/01/25 00:06:49;;;;;;;8.75;4.57;;;;;;;;;;5143633;27;20039;-71
2023/01/25 00:09:15;;;;;;;6.93;4.50;;;;;;;;;;5143327;27;20043;-75
2023/01/25 00:11:43;;;;;;;7.95;4.43;;;;;;;;;;5148897;27;20054;-73
2023/01/25 00:14:10;;;;;;;7.03;4.38;;;;;;;;;;5144138;27;20082;-74
2023/01/25 00:16:37;;;;;;;8.07;4.80;;;;;;;;;;5137448;27;20047;-73
2023/01/25 00:19:03;;;;;;;6.97;4.55;;;;;;;;;;5138063;27;20436;-73
2023/01/25 00:21:29;;;;;;;6.88;4.43;;;;;;;;;;5138115;27;20453;-73
2023/01/25 00:23:55;;;;;;;8.57;4.72;;;;;;;;;;5141427;27;20111;-72
2023/01/25 00:26:21;;;;;;;8.43;4.50;;;;;;;;;;5142132;27;20042;-75
2023/01/25 00:28:51;;;;;;;10.18;5.03;;;;;;;;;;5136473;27;20144;-73
2023/01/25 00:31:25;;;;;;;9.48;4.88;;;;;;;;;;5138338;27;20043;-74
2023/01/25 00:34:19;;;;;;;9.40;4.70;;;;;;;;;;5137215;27;20054;-75
2023/01/25 00:36:48;;;;;;;7.43;4.45;;;;;;;;;;5138696;27;20042;-73
2023/01/25 00:39:13;;;;;;;7.32;4.20;;;;;;;;;;5141916;27;20085;-72
2023/01/25 00:41:40;;;;;;;7.45;3.78;;;;;;;;;;5139423;27;20055;-73
2023/01/25 00:44:06;;;;;;;7.68;4.38;;;;;;;;;;5144225;27;20103;-72
2023/01/25 00:46:32;;;;;;;6.22;3.92;;;;;;;;;;5137754;27;20131;-75
2023/01/25 00:48:57;;;;;;;14.52;5.25;;;;;;;;;;5138344;27;20500;-73
2023/01/25 00:51:24;;;;;;;8.05;3.53;;;;;;;;;;5142597;27;20039;-72
2023/01/25 00:53:51;;;;;;;5.20;3.40;;;;;;;;;;5138858;27;20046;-74
2023/01/25 00:56:17;;;;;;;7.30;3.72;;;;;;;;;;5138838;27;20047;-72
2023/01/25 00:58:43;;;;;;;6.20;3.40;;;;;;;;;;5122324;27;20046;-73
2023/01/25 01:01:09;;;;;;;7.38;3.45;;;;;;;;;;5132087;27;20047;-73
2023/01/25 01:03:35;;;;;;;8.93;3.75;;;;;;;;;;5135645;27;20042;-74
2023/01/25 01:06:08;;;;;;;5.88;3.55;;;;;;;;;;5141142;27;20057;-73
2023/01/25 01:08:37;;;;;;;6.68;3.30;;;;;;;;;;5140109;27;20091;-73
2023/01/25 01:11:06;;;;;;;7.55;3.65;;;;;;;;;;5134816;27;20111;-73
2023/01/25 01:13:32;;;;;;;5.47;3.55;;;;;;;;;;5114735;27;20062;-74
2023/01/25 01:16:04;;;;;;;5.53;3.40;;;;;;;;;;5135103;27;20039;-74
2023/01/25 01:18:34;;;;;;;6.30;3.47;;;;;;;;;;5138867;27;20085;-72
2023/01/25 01:21:01;;;;;;;5.90;3.55;;;;;;;;;;5134740;27;20057;-74
2023/01/25 01:23:30;;;;;;;6.15;3.58;;;;;;;;;;5134596;27;20133;-74
2023/01/25 01:26:00;;;;;;;6.25;3.60;;;;;;;;;;5141177;27;20096;-74
2023/01/25 01:28:31;;;;;;;7.45;4.13;;;;;;;;;;5137027;27;20499;-72
2023/01/25 01:31:08;;;;;;;5.35;3.50;;;;;;;;;;5131238;27;20050;-74
2023/01/25 01:33:34;;;;;;;7.53;3.92;;;;;;;;;;5131531;27;20122;-73
2023/01/25 01:36:14;;;;;;;6.18;3.70;;;;;;;;;;5140430;27;20043;-74
2023/01/25 01:38:41;;;;;;;5.75;3.65;;;;;;;;;;5135845;27;20042;-72
2023/01/25 01:41:09;;;;;;;5.97;3.65;;;;;;;;;;5141996;27;20046;-74
2023/01/25 01:43:35;;;;;;;6.30;3.83;;;;;;;;;;5135539;27;20400;-71
2023/01/25 01:46:13;;;;;;;6.18;3.50;;;;;;;;;;5141556;27;20042;-75
2023/01/25 01:48:50;;;;;;;8.93;3.60;;;;;;;;;;5136709;27;20438;-72
2023/01/25 01:51:38;;;;;;;4.65;3.35;;;;;;;;;;5138382;27;20158;-72
2023/01/25 01:54:17;;;;;;;6.13;3.70;;;;;;;;;;5139338;27;20068;-71
2023/01/25 01:56:51;;;;;;;5.45;3.30;;;;;;;;;;5142324;27;20047;-74
2023/01/25 01:59:18;;;;;;;5.03;3.30;;;;;;;;;;5137859;27;20058;-74
2023/01/25 02:01:45;;;;;;;5.50;3.22;;;;;;;;;;5127761;27;20047;-73
2023/01/25 02:04:12;;;;;;;5.50;2.90;;;;;;;;;;5132317;27;20035;-73
2023/01/25 02:06:46;;;;;;;5.85;3.38;;;;;;;;;;5135139;27;20043;-74
2023/01/25 02:09:14;;;;;;;4.43;3.22;;;;;;;;;;5137828;27;20046;-73
2023/01/25 02:11:41;;;;;;;6.43;3.53;;;;;;;;;;5141799;27;20051;-73
2023/01/25 02:14:07;;;;;;;5.10;3.13;;;;;;;;;;5137340;27;20051;-74
2023/01/25 02:16:34;;;;;;;5.78;3.30;;;;;;;;;;5142672;27;20054;-75
2023/01/25 02:19:02;;;;;;;4.97;3.38;;;;;;;;;;5135597;27;20480;-73
2023/01/25 02:21:36;;;;;;;5.13;3.22;;;;;;;;;;5140174;27;20043;-73
2023/01/25 02:24:20;;;;;;;4.95;3.25;;;;;;;;;;5137905;27;20051;-73
2023/01/25 02:26:46;;;;;;;4.00;2.75;;;;;;;;;;5122777;27;20039;-73
2023/01/25 02:29:13;;;;;;;4.45;3.03;;;;;;;;;;5138429;27;20410;-73
2023/01/25 02:31:39;;;;;;;6.00;2.92;;;;;;;;;;5138680;27;20065;-73
2023/01/25 02:34:05;;;;;;;13.25;3.53;;;;;;;;;;5133356;27;20050;-74
2023/01/25 02:36:33;;;;;;;8.95;2.97;;;;;;;;;;5135168;27;20050;-74
2023/01/25 02:39:17;;;;;;;7.72;3.00;;;;;;;;;;5136265;27;20052;-72
2023/01/25 02:41:46;;;;;;;6.13;3.47;;;;;;;;;;5140986;27;20425;-72
2023/01/25 02:44:27;;;;;;;5.18;3.10;;;;;;;;;;5134840;27;20488;-72
2023/01/25 02:46:54;;;;;;;6.35;3.60;;;;;;;;;;5135004;27;20655;-73
2023/01/25 02:49:19;;;;;;;6.55;3.20;;;;;;;;;;5135893;27;20143;-73
2023/01/25 02:51:49;;;;;;;4.32;2.95;;;;;;;;;;5135654;27;20046;-72
2023/01/25 02:54:17;;;;;;;5.00;3.22;;;;;;;;;;5136781;27;20047;-73
2023/01/25 02:56:43;;;;;;;4.03;2.63;;;;;;;;;;5130174;27;20063;-73
2023/01/25 02:59:12;;;;;;;4.63;2.92;;;;;;;;;;5116632;27;20035;-74
2023/01/25 03:01:40;;;;;;;3.63;2.45;;;;;;;;;;5137782;27;20066;-72
2023/01/25 03:04:06;;;;;;;9.25;2.70;;;;;;;;;;5134098;27;20146;-71
2023/01/25 03:06:34;;;;;;;3.55;2.55;;;;;;;;;;5137145;27;20046;-73
2023/01/25 03:09:00;;;;;;;4.63;2.90;;;;;;;;;;5138548;27;20042;-72
2023/01/25 03:11:26;;;;;;;5.10;2.55;;;;;;;;;;5135932;27;20038;-72
2023/01/25 03:13:52;;;;;;;4.72;2.60;;;;;;;;;;5134021;27;20450;-73
2023/01/25 03:16:18;;;;;;;4.47;3.05;;;;;;;;;;5131506;27;20053;-72
2023/01/25 03:18:44;;;;;;;2.97;2.40;;;;;;;;;;5139646;27;20047;-72
2023/01/25 03:21:17;;;;;;;7.00;2.92;;;;;;;;;;5131274;27;20038;-72
2023/01/25 03:23:44;;;;;;;4.72;2.70;;;;;;;;;;5140899;27;20082;-73
2023/01/25 03:26:11;;;;;;;5.97;2.65;;;;;;;;;;5135639;27;20169;-72
2023/01/25 03:28:39;;;;;;;3.85;2.70;;;;;;;;;;5131132;27;20474;-72
2023/01/25 03:31:05;;;;;;;4.93;2.78;;;;;;;;;;5130732;27;20453;-74
2023/01/25 03:33:32;;;;;;;3.88;2.47;;;;;;;;;;5121727;27;20149;-73
2023/01/25 03:35:58;;;;;;;4.18;2.65;;;;;;;;;;5138561;27;20367;-73
2023/01/25 03:38:24;;;;;;;4.05;2.70;;;;;;;;;;5134845;27;20046;-73
2023/01/25 03:40:51;;;;;;;4.22;2.55;;;;;;;;;;5129279;27;20684;-73
2023/01/25 03:43:19;;;;;;;4.57;2.67;;;;;;;;;;5129932;27;20050;-74
2023/01/25 03:45:45;;;;;;;3.88;2.80;;;;;;;;;;5130854;27;20050;-73
2023/01/25 03:48:11;;;;;;;4.07;2.58;;;;;;;;;;5138770;27;20433;-73
2023/01/25 03:50:37;;;;;;;4.53;2.65;;;;;;;;;;5132272;27;20190;-73
2023/01/25 03:53:08;;;;;;;3.25;2.38;;;;;;;;;;5130280;27;20043;-74
2023/01/25 03:55:35;;;;;;;5.47;2.70;;;;;;;;;;5128152;27;20091;-72
2023/01/25 03:58:01;;;;;;;4.35;2.55;;;;;;;;;;5131133;27;20043;-73
2023/01/25 04:00:27;;;;;;;3.30;2.40;;;;;;;;;;5132022;27;20060;-74
2023/01/25 04:02:52;;;;;;;3.83;2.47;;;;;;;;;;5133893;27;20046;-73
2023/01/25 04:05:19;;;;;;;6.38;2.42;;;;;;;;;;5132062;27;20065;-73
2023/01/25 04:07:44;;;;;;;3.42;2.40;;;;;;;;;;5132018;27;20655;-73
2023/01/25 04:10:11;;;;;;;9.48;2.90;;;;;;;;;;5129761;27;20066;-74
2023/01/25 04:12:37;;;;;;;5.68;2.92;;;;;;;;;;5135569;27;20126;-73
2023/01/25 04:15:03;;;;;;;4.97;2.90;;;;;;;;;;5137999;27;20094;-73
2023/01/25 04:17:29;;;;;;;3.78;2.42;;;;;;;;;;5132885;27;20063;-74
2023/01/25 04:19:55;;;;;;;4.85;2.50;;;;;;;;;;5130125;27;20128;-72
2023/01/25 04:22:21;;;;;;;4.75;2.63;;;;;;;;;;5133864;27;20210;-73
2023/01/25 04:24:47;;;;;;;4.47;2.80;;;;;;;;;;5129925;27;20053;-74
2023/01/25 04:27:12;;;;;;;4.63;2.60;;;;;;;;;;5134815;27;20043;-73
2023/01/25 04:29:38;;;;;;;5.00;2.70;;;;;;;;;;5131492;27;20043;-73
2023/01/25 04:32:05;;;;;;;5.65;2.70;;;;;;;;;;5130137;27;20509;-73
2023/01/25 04:34:31;;;;;;;6.35;2.67;;;;;;;;;;5136847;27;20057;-73
2023/01/25 04:36:56;;;;;;;5.07;3.05;;;;;;;;;;5134882;27;20046;-72
2023/01/25 04:39:22;;;;;;;4.60;3.10;;;;;;;;;;5135646;27;20043;-73
2023/01/25 04:41:48;;;;;;;4.95;3.10;;;;;;;;;;5127483;27;20055;-75
2023/01/25 04:44:14;;;;;;;6.80;3.63;;;;;;;;;;5131967;27;20051;-73
2023/01/25 04:46:40;;;;;;;6.50;3.50;;;;;;;;;;5133717;27;20043;-74
2023/01/25 04:49:06;;;;;;;9.10;4.05;;;;;;;;;;5132597;27;20078;-73
2023/01/25 04:51:32;;;;;;;7.85;3.55;;;;;;;;;;5132910;27;21679;-74
2023/01/25 04:53:58;;;;;;;8.13;4.15;;;;;;;;;;5118618;27;20050;-75
2023/01/25 04:56:24;;;;;;;5.57;3.85;;;;;;;;;;5144659;27;20190;-74
2023/01/25 04:58:50;;;;;;;6.15;3.58;;;;;;;;;;5138967;27;20053;-74
2023/01/25 05:01:16;;;;;;;6.28;3.85;;;;;;;;;;5133600;27;20051;-72
2023/01/25 05:03:42;;;;;;;5.13;3.50;;;;;;;;;;5135733;27;20042;-73
2023/01/25 05:06:08;;;;;;;6.35;3.60;;;;;;;;;;5112682;27;20349;-73
2023/01/25 05:08:34;;;;;;;10.77;3.47;;;;;;;;;;5135096;27;20043;-73
2023/01/25 05:10:59;;;;;;;5.15;3.28;;;;;;;;;;5134579;27;20659;-71
2023/01/25 05:13:26;;;;;;;5.10;3.20;;;;;;;;;;5138609;27;20144;-71
2023/01/25 05:15:51;;;;;;;6.65;3.90;;;;;;;;;;5140853;27;20133;-73
2023/01/25 05:18:17;;;;;;;5.80;3.40;;;;;;;;;;5136328;27;20817;-74
2023/01/25 05:20:44;;;;;;;6.70;3.55;;;;;;;;;;5135817;27;21211;-73
2023/01/25 05:23:10;;;;;;;5.38;3.60;;;;;;;;;;5136864;27;20251;-75
2023/01/25 05:28:20;;;;;;;4.85;3.00;;;;;;;;;;5134963;27;20047;-73
2023/01/25 05:30:46;;;;;;;4.95;3.22;;;;;;;;;;5134300;27;20095;-74
2023/01/25 05:33:12;;;;;;;4.43;3.17;;;;;;;;;;5137561;27;20062;-75
2023/01/25 05:35:38;;;;;;;9.10;3.05;;;;;;;;;;5133031;27;20050;-74
2023/01/25 05:38:04;;;;;;;4.68;2.92;;;;;;;;;;5136326;27;20047;-73
2023/01/25 05:40:30;;;;;;;5.88;3.20;;;;;;;;;;5135836;27;20542;-73
2023/01/25 05:42:58;;;;;;;7.72;3.22;;;;;;;;;;5142114;27;20091;-73
2023/01/25 05:45:25;;;;;;;8.57;3.65;;;;;;;;;;5133532;27;20642;-74
2023/01/25 05:47:55;;;;;;;6.00;2.97;;;;;;;;;;5136167;27;20141;-75
2023/01/25 05:50:22;;;;;;;7.47;3.70;;;;;;;;;;5135167;27;20046;-74
2023/01/25 05:52:49;;;;;;;6.20;3.10;;;;;;;;;;5140993;27;20718;-75
2023/01/25 05:55:15;;;;;;;5.68;3.40;;;;;;;;;;5136401;27;20518;-75
2023/01/25 05:57:41;;;;;;;5.15;3.35;;;;;;;;;;5136032;27;20042;-76
2023/01/25 06:00:08;;;;;;;4.82;3.28;;;;;;;;;;5135360;27;20483;-75
2023/01/25 06:02:35;;;;;;;6.55;3.45;;;;;;;;;;5108710;27;20070;-72
2023/01/25 06:05:02;;;;;;;4.78;2.85;;;;;;;;;;5135711;27;20043;-74
2023/01/25 06:07:32;;;;;;;5.47;3.28;;;;;;;;;;5136108;27;20403;-74
2023/01/25 06:09:57;;;;;;;6.03;3.05;;;;;;;;;;5134691;27;20074;-73
2023/01/25 06:12:24;;;;;;;5.20;3.10;;;;;;;;;;5141385;27;20043;-72
2023/01/25 06:14:49;;;;;;;5.03;3.03;;;;;;;;;;5140056;27;20591;-72
2023/01/25 06:17:15;;;;;;;6.32;3.20;;;;;;;;;;5132507;27;20049;-73
2023/01/25 06:19:41;;;;;;;8.20;3.67;;;;;;;;;;5130728;27;20051;-72
2023/01/25 06:22:08;;;;;;;6.13;3.35;;;;;;;;;;5131975;27;20064;-74
2023/01/25 06:24:34;;;;;;;6.47;3.10;;;;;;;;;;5123337;27;20205;-71
2023/01/25 06:27:00;;;;;;;9.63;3.47;;;;;;;;;;5141759;27;20059;-74
2023/01/25 06:29:26;;;;;;;6.78;3.28;;;;;;;;;;5134031;27;20048;-74
2023/01/25 06:31:54;;;;;;;6.25;3.55;;;;;;;;;;5134429;27;20607;-74
2023/01/25 06:34:20;;;;;;;7.50;3.40;;;;;;;;;;5135824;27;20035;-72
2023/01/25 06:36:47;;;;;;;3.85;2.75;;;;;;;;;;5127129;27;20047;-70
2023/01/25 06:39:13;;;;;;;7.30;3.40;;;;;;;;;;5131266;27;20043;-72
2023/01/25 06:41:39;;;;;;;5.50;3.10;;;;;;;;;;5131581;27;20057;-74
2023/01/25 06:44:05;;;;;;;6.15;3.13;;;;;;;;;;5133135;27;20050;-70
2023/01/25 06:46:32;;;;;;;5.72;3.13;;;;;;;;;;5130116;27;20103;-70
2023/01/25 06:48:58;;;;;;;4.90;2.95;;;;;;;;;;5136096;27;20039;-73
2023/01/25 06:51:24;;;;;;;6.93;3.40;;;;;;;;;;5134848;27;20045;-74
2023/01/25 06:53:50;;;;;;;5.97;3.50;;;;;;;;;;5133792;27;20066;-73
2023/01/25 06:56:21;;;;;;;4.88;2.75;;;;;;;;;;5128635;27;20062;-75
2023/01/25 06:58:47;;;;;;;7.10;2.95;;;;;;;;;;5115329;27;20711;-73
2023/01/25 07:01:19;;;;;;;8.10;2.83;;;;;;;;;;5135572;27;20131;-74
2023/01/25 07:03:50;;;;;;;4.57;2.92;;;;;;;;;;5136718;27;20503;-75
2023/01/25 07:06:17;;;;;;;6.40;2.30;;;;;;;;;;5136881;27;20043;-74
2023/01/25 07:08:43;;;;;;;7.05;2.75;;;;;;;;;;5135533;27;20043;-73
2023/01/25 07:11:12;;;;;;;5.15;2.50;;;;;;;;;;5131656;27;20043;-72
2023/01/25 07:13:44;;;;;;;3.85;2.65;;;;;;;;;;5129171;27;20043;-75
2023/01/25 07:16:16;;;;;;;6.68;2.65;;;;;;;;;;5130472;27;20752;-73
2023/01/25 07:18:42;;;;;;;7.55;2.78;;;;;;;;;;5133953;27;20111;-75
2023/01/25 07:21:16;;;;;;;7.68;2.72;;;;;;;;;;5135767;27;20511;-73
2023/01/25 07:23:43;;;;;;;6.22;2.83;;;;;;;;;;5130490;27;20035;-72
2023/01/25 07:26:18;;;;;;;7.68;2.65;;;;;;;;;;5128801;27;20047;-73
2023/01/25 07:28:45;;;;;;;6.03;2.53;;;;;;;;;;5133626;27;20137;-73
2023/01/25 07:31:13;;;;;;;5.32;2.83;;;;;;;;;;5129024;27;20049;-75
2023/01/25 07:33:39;;;;;;;6.10;2.33;;;;;;;;;;5131659;27;20082;-70
2023/01/25 07:36:08;;;;;;;6.93;3.05;;;;;;;;;;5127378;27;20054;-71
2023/01/25 07:38:35;;;;;;;6.40;3.10;;;;;;;;;;5126012;27;20051;-74
2023/01/25 07:41:02;;;;;;;8.90;2.90;;;;;;;;;;5130622;27;20047;-71
2023/01/25 07:43:28;;;;;;;3.83;2.53;;;;;;;;;;5127903;27;20073;-70
2023/01/25 07:46:00;;;;;;;7.22;2.88;;;;;;;;;;5122514;27;20050;-69
2023/01/25 07:48:26;;;;;;;7.10;3.42;;;;;;;;;;5136107;27;20984;-74
2023/01/25 07:51:10;;;;;;;4.22;2.72;;;;;;;;;;5133963;27;20054;-75
2023/01/25 07:53:40;;;;;;;7.75;2.78;;;;;;;;;;5131805;27;20049;-76
2023/01/25 07:56:08;;;;;;;6.28;2.90;;;;;;;;;;5131624;27;20043;-75
2023/01/25 07:58:34;;;;;;;10.88;2.90;;;;;;;;;;5130324;27;20551;-75
2023/01/25 08:01:11;;;;;;;6.32;3.17;;;;;;;;;;5129619;27;20046;-74
2023/01/25 08:03:37;;;;;;;5.35;2.80;;;;;;;;;;5130138;27;20201;-74
2023/01/25 08:06:04;;;;;;;11.60;3.40;;;;;;;;;;5134184;27;20050;-73
2023/01/25 08:08:33;;;;;;;9.88;2.70;;;;;;;;;;5131244;27;20035;-75
2023/01/25 08:11:12;;;;;;;8.20;3.63;;;;;;;;;;5136562;27;20051;-76
2023/01/25 08:13:39;;;;;;;8.43;2.97;;;;;;;;;;5128811;27;20042;-74
2023/01/25 08:16:05;;;;;;;9.20;3.28;;;;;;;;;;5135571;27;20075;-75
2023/01/25 08:18:31;;;;;;;6.45;3.42;;;;;;;;;;5136834;27;20586;-76
2023/01/25 08:20:58;;;;;;;8.98;3.00;;;;;;;;;;5134342;27;20137;-74
2023/01/25 08:23:24;;;;;;;11.00;3.00;;;;;;;;;;5128252;27;20788;-75
2023/01/25 08:25:50;;;;;;;5.05;2.90;;;;;;;;;;5138168;27;20114;-74
2023/01/25 08:28:16;;;;;;;7.28;2.90;;;;;;;;;;5133579;27;20684;-74
2023/01/25 08:30:42;;;;;;;9.90;2.90;;;;;;;;;;5139226;27;20130;-75
2023/01/25 08:33:08;;;;;;;5.80;3.22;;;;;;;;;;5136833;27;20376;-75
2023/01/25 08:35:37;;;;;;;9.18;3.75;;;;;;;;;;5136533;27;20061;-76
2023/01/25 08:38:03;;;;;;;10.23;4.47;;;;;;;;;;5136435;27;20054;-75
2023/01/25 08:40:29;;;;;;;9.35;3.80;;;;;;;;;;5133830;27;20407;-75
2023/01/25 08:42:55;;;;;;;10.77;3.20;;;;;;;;;;5139352;27;20047;-75
2023/01/25 08:45:21;;;;;;;6.50;2.85;;;;;;;;;;5134277;27;20103;-74
2023/01/25 08:47:47;;;;;;;7.60;3.30;;;;;;;;;;5144634;27;20054;-75
2023/01/25 08:50:13;;;;;;;8.90;3.38;;;;;;;;;;5140918;27;20061;-74
2023/01/25 08:52:39;;;;;;;7.95;3.63;;;;;;;;;;5134375;27;20643;-77
2023/01/25 08:55:06;;;;;;;11.10;4.18;;;;;;;;;;5141552;27;20065;-75
2023/01/25 08:57:31;;;;;;;14.00;6.03;;;;;;;;;;5138346;27;20085;-75
2023/01/25 08:59:57;;;;;;;10.85;3.63;;;;;;;;;;5138233;27;20161;-76
2023/01/25 09:02:23;;;;;;;11.63;3.50;;;;;;;;;;5141629;27;20062;-78
2023/01/25 09:04:49;;;;;;;7.47;3.78;;;;;;;;;;5138360;27;20042;-75
2023/01/25 09:07:15;;;;;;;9.18;3.78;;;;;;;;;;5143122;27;20118;-75
2023/01/25 09:09:41;;;;;;;14.93;4.70;;;;;;;;;;5142866;27;20047;-75
2023/01/25 09:12:08;;;;;;;13.05;3.88;;;;;;;;;;5136506;27;20083;-74
2023/01/25 09:14:36;;;;;;;7.50;3.55;;;;;;;;;;5142372;27;20062;-73
2023/01/25 09:17:02;;;;;;;8.75;3.65;;;;;;;;;;5140376;27;20043;-77
2023/01/25 09:19:28;;;;;;;16.92;3.90;;;;;;;;;;5136742;27;20058;-76
2023/01/25 09:21:54;;;;;;;9.20;3.30;;;;;;;;;;5135035;27;20034;-73
2023/01/25 09:24:20;;;;;;;5.82;3.55;;;;;;;;;;5132887;27;20070;-76
2023/01/25 09:26:45;;;;;;;17.30;3.15;;;;;;;;;;5135539;27;20070;-75
2023/01/25 09:29:12;;;;;;;7.25;3.15;;;;;;;;;;5137436;27;20551;-74
2023/01/25 09:31:44;;;;;;;6.57;3.10;;;;;;;;;;5145185;27;20051;-74
2023/01/25 09:34:12;;;;;;;9.15;3.80;;;;;;;;;;5139591;27;20395;-75
2023/01/25 09:36:38;;;;;;;10.77;3.10;;;;;;;;;;5134573;27;20047;-74
2023/01/25 09:39:04;;;;;;;11.35;3.78;;;;;;;;;;5140499;27;20364;-75
2023/01/25 09:41:39;;;;;;;17.85;3.50;;;;;;;;;;5133483;27;20166;-74
2023/01/25 09:44:27;;;;;;;15.98;3.97;;;;;;;;;;5132370;27;20039;-73
2023/01/25 09:46:57;;;;;;;18.00;4.20;;;;;;;;;;5134488;27;20107;-74
2023/01/25 09:49:45;;;;;;;15.45;3.97;;;;;;;;;;5137158;27;20050;-76
2023/01/25 09:52:35;;;;;;;15.15;3.88;;;;;;;;;;5136714;27;20065;-74
2023/01/25 09:55:01;;;;;;;12.63;3.58;;;;;;;;;;5135026;27;20141;-74
2023/01/25 09:57:37;;;;;;;10.75;3.83;;;;;;;;;;5143445;27;20038;-75
2023/01/25 10:00:22;;;;;;;6.70;3.45;;;;;;;;;;5119189;27;20068;-74
2023/01/25 10:03:06;;;;;;;10.98;3.40;;;;;;;;;;5132505;27;20043;-78
2023/01/25 10:05:41;;;;;;;9.65;3.95;;;;;;;;;;5134526;27;20120;-77
2023/01/25 10:08:07;;;;;;;;;;;;;;;;;;5137455;27;20316;-76
2023/01/25 10:10:40;;;;;;;9.27;3.33;;;;;;;;;;5140548;27;19918;-76
2023/01/25 10:13:15;;;;;;;11.65;3.83;;;;;;;;;;5142223;27;20102;-77
2023/01/25 10:16:03;;;;;;;9.32;3.80;;;;;;;;;;5122300;27;20527;-74
2023/01/25 10:18:53;;;;;;;7.28;3.35;;;;;;;;;;5140067;27;20385;-75
2023/01/25 10:21:34;;;;;;;6.45;3.22;;;;;;;;;;5133026;27;20047;-75
2023/01/25 10:24:03;;;;;;;15.20;3.70;;;;;;;;;;5136850;27;20452;-75
2023/01/25 10:26:33;;;;;;;9.75;3.85;;;;;;;;;;5131829;27;20051;-75
2023/01/25 10:29:18;;;;;;;15.57;4.70;;;;;;;;;;5139951;27;20046;-76
2023/01/25 10:31:52;;;;;;;12.57;4.75;;;;;;;;;;5142283;27;20534;-75
2023/01/25 10:34:23;;;;;;;18.65;4.25;;;;;;;;;;5131463;27;20188;-74
2023/01/25 10:36:56;;;;;;;11.07;3.80;;;;;;;;;;5135658;27;20039;-75
2023/01/25 10:39:22;;;;;;;11.80;3.42;;;;;;;;;;5139305;27;20052;-77
2023/01/25 10:41:48;;;;;;;11.90;3.42;;;;;;;;;;5129934;27;20043;-76
2023/01/25 10:44:20;;;;;;;10.00;3.83;;;;;;;;;;5133007;27;20054;-77
2023/01/25 10:47:22;;;;;;;7.07;3.63;;;;;;;;;;5136204;27;20541;-76
2023/01/25 10:49:52;;;;;;;8.35;4.10;;;;;;;;;;5120023;27;20050;-78
2023/01/25 10:52:22;;;;;;;6.30;3.53;;;;;;;;;;5114657;27;20051;-76
2023/01/25 10:55:05;;;;;;;11.05;3.10;;;;;;;;;;5127405;27;20101;-75
2023/01/25 10:57:33;;;;;;;8.18;2.60;;;;;;;;;;5133402;27;20100;-76
2023/01/25 11:00:06;;;;;;;8.77;3.20;;;;;;;;;;5135758;27;20436;-75
2023/01/25 11:02:34;;;;;;;5.22;2.70;;;;;;;;;;5140040;27;20047;-75
2023/01/25 11:05:34;;;;;;;9.05;2.70;;;;;;;;;;5119485;27;20073;-76
2023/01/25 11:08:25;;;;;;;5.32;2.90;;;;;;;;;;5132328;27;20115;-73
2023/01/25 11:10:52;;;;;;;7.45;2.70;;;;;;;;;;5134528;27;20043;-76
2023/01/25 11:13:22;;;;;;;4.57;2.63;;;;;;;;;;5133598;27;20596;-76
2023/01/25 11:15:53;;;;;;;7.07;2.63;;;;;;;;;;5135594;27;20099;-78
2023/01/25 11:18:27;;;;;;;5.70;3.30;;;;;;;;;;5133906;27;20582;-76
2023/01/25 11:21:17;;;;;;;7.78;2.97;;;;;;;;;;5134496;27;20177;-76
2023/01/25 11:23:56;;;;;;;9.32;3.10;;;;;;;;;;5133908;27;20498;-76
2023/01/25 11:26:22;;;;;;;8.77;2.80;;;;;;;;;;5127716;27;20051;-76
2023/01/25 11:28:48;;;;;;;9.07;2.30;;;;;;;;;;5110847;27;20043;-76
2023/01/25 11:31:23;;;;;;;5.40;1.80;;;;;;;;;;5138546;27;20638;-78
2023/01/25 11:33:49;;;;;;;5.28;1.63;;;;;;;;;;5130691;27;20051;-75
2023/01/25 11:36:27;;;;;;;5.97;1.27;;;;;;;;;;5132639;27;20578;-76
2023/01/25 11:39:55;;;;;;;2.55;1.40;;;;;;;;;;5136670;27;20042;-75
2023/01/25 11:42:42;;;;;;;5.25;1.95;;;;;;;;;;5082814;27;20039;-74
2023/01/25 11:45:26;;;;;;;7.20;1.80;;;;;;;;;;5132315;27;20676;-73
2023/01/25 11:48:12;;;;;;;6.30;2.33;;;;;;;;;;5134138;27;20443;-76
2023/01/25 11:50:46;;;;;;;9.45;2.22;;;;;;;;;;5135146;27;20077;-75
2023/01/25 11:53:38;;;;;;;3.40;1.50;;;;;;;;;;5135194;27;20051;-77
2023/01/25 11:56:22;;;;;;;3.53;1.77;;;;;;;;;;5142585;27;20104;-76
2023/01/25 11:59:23;;;;;;;4.43;1.42;;;;;;;;;;5132691;27;20043;-75
2023/01/25 12:02:08;;;;;;;4.72;1.48;;;;;;;;;;5136712;27;20051;-75
2023/01/25 12:05:01;;;;;;;5.90;1.90;;;;;;;;;;5141570;27;20075;-76
2023/01/25 12:07:39;;;;;;;6.70;1.50;;;;;;;;;;5139651;27;20054;-75
2023/01/25 12:10:29;;;;;;;2.80;1.50;;;;;;;;;;5137942;27;20047;-75
2023/01/25 12:13:00;;;;;;;4.80;1.48;;;;;;;;;;5134664;27;20057;-75
2023/01/25 12:16:01;;;;;;;6.00;1.55;;;;;;;;;;5137350;27;20042;-75
2023/01/25 12:18:36;;;;;;;5.20;1.50;;;;;;;;;;5134264;27;20039;-76
2023/01/25 12:21:24;;;;;;;4.18;1.35;;;;;;;;;;5138393;27;20058;-75
2023/01/25 12:23:59;;;;;;;5.53;1.20;;;;;;;;;;5131243;27;20059;-75
2023/01/25 12:26:29;;;;;;;2.13;1.10;;;;;;;;;;5133212;27;20047;-76
2023/01/25 12:29:02;;;;;;;4.00;1.40;;;;;;;;;;5141722;27;20043;-79
2023/01/25 12:31:46;;;;;;;6.38;1.40;;;;;;;;;;5142561;27;20046;-78
2023/01/25 12:34:27;;;;;;;3.40;1.20;;;;;;;;;;5115930;27;20042;-77
2023/01/25 12:36:57;;;;;;;4.43;1.40;;;;;;;;;;5137240;27;20136;-77
2023/01/25 12:39:33;;;;;;;5.38;1.20;;;;;;;;;;5137106;27;20047;-77
2023/01/25 12:42:04;;;;;;;3.28;1.08;;;;;;;;;;5137861;27;20046;-76
2023/01/25 12:44:37;;;;;;;10.20;1.75;;;;;;;;;;5141717;27;20050;-75
2023/01/25 12:47:11;;;;;;;3.55;1.48;;;;;;;;;;5142263;27;20051;-76
2023/01/25 12:49:52;;;;;;;2.83;1.52;;;;;;;;;;5136236;27;20061;-76
2023/01/25 12:52:33;;;;;;;2.80;1.38;;;;;;;;;;5136561;27;20124;-77
2023/01/25 12:55:06;;;;;;;4.10;1.60;;;;;;;;;;5141739;27;20388;-77
2023/01/25 12:57:40;;;;;;;5.85;1.80;;;;;;;;;;5120120;27;20134;-79
2023/01/25 13:00:22;;;;;;;4.07;1.70;;;;;;;;;;5136784;27;20058;-77
2023/01/25 13:03:15;;;;;;;3.83;1.60;;;;;;;;;;5135391;27;20051;-78
2023/01/25 13:05:50;;;;;;;2.55;1.50;;;;;;;;;;5139036;27;20265;-76
2023/01/25 13:08:34;;;;;;;10.18;2.03;;;;;;;;;;5120621;27;20103;-73
2023/01/25 13:11:25;;;;;;;5.28;2.58;;;;;;;;;;5138709;27;20475;-78
2023/01/25 13:13:50;;;;;;;6.40;1.80;;;;;;;;;;5129878;27;20202;-75
2023/01/25 13:16:29;;;;;;;11.25;1.85;;;;;;;;;;5138756;27;20484;-75
2023/01/25 13:18:56;;;;;;;8.05;1.70;;;;;;;;;;5142702;27;20058;-75
2023/01/25 13:21:46;;;;;;;2.25;1.30;;;;;;;;;;5132513;27;20058;-75
2023/01/25 13:24:21;;;;;;;3.42;1.60;;;;;;;;;;5133671;27;20149;-71
2023/01/25 13:26:53;;;;;;;5.60;1.58;;;;;;;;;;5135955;27;20103;-75
2023/01/25 13:29:41;;;;;;;9.85;1.60;;;;;;;;;;5137645;27;20053;-73
2023/01/25 13:32:33;;;;;;;3.45;1.30;;;;;;;;;;5136980;27;20071;-76
2023/01/25 13:35:00;;;;;;;2.88;1.20;;;;;;;;;;5097085;27;20095;-72
2023/01/25 13:37:33;;;;;;;5.38;1.95;;;;;;;;;;5140816;27;20039;-76
2023/01/25 13:40:30;;;;;;;4.82;1.30;;;;;;;;;;5137863;27;20134;-78
2023/01/25 13:43:00;;;;;;;8.00;1.73;;;;;;;;;;5130074;27;20131;-75
2023/01/25 13:45:27;;;;;;;5.20;1.20;;;;;;;;;;5140351;27;20119;-76
2023/01/25 13:48:24;;;;;;;4.60;1.23;;;;;;;;;;5133629;27;20043;-74
2023/01/25 13:50:52;;;;;;;3.25;1.20;;;;;;;;;;5121940;27;20054;-75
2023/01/25 13:53:22;;;;;;;4.03;1.52;;;;;;;;;;5136809;27;20486;-76
2023/01/25 13:55:53;;;;;;;5.40;0.98;;;;;;;;;;5133684;27;20070;-75
2023/01/25 13:58:26;;;;;;;8.43;3.05;;;;;;;;;;5118900;27;20482;-77
2023/01/25 14:01:07;;;;;;;2.65;1.00;;;;;;;;;;5140775;27;20483;-74
2023/01/25 14:03:40;;;;;;;6.00;1.38;;;;;;;;;;5134720;27;20081;-77
2023/01/25 14:06:15;;;;;;;4.53;2.10;;;;;;;;;;5128829;27;20152;-76
2023/01/25 14:08:43;;;;;;;6.15;1.60;;;;;;;;;;5138215;27;20119;-74
2023/01/25 14:11:08;;;;;;;4.05;1.60;;;;;;;;;;5118660;27;20059;-74
2023/01/25 14:13:34;;;;;;;4.35;1.77;;;;;;;;;;5132153;27;20049;-73
2023/01/25 14:16:03;;;;;;;5.53;1.38;;;;;;;;;;5132983;27;20407;-76
2023/01/25 14:18:33;;;;;;;5.35;1.38;;;;;;;;;;5131611;27;20106;-75
2023/01/25 14:21:11;;;;;;;8.45;1.60;;;;;;;;;;5135827;27;20035;-72
2023/01/25 14:23:38;;;;;;;5.68;1.50;;;;;;;;;;5133834;27;20058;-74
2023/01/25 14:26:18;;;;;;;3.13;1.40;;;;;;;;;;5142946;27;20069;-71
2023/01/25 14:28:46;;;;;;;4.03;1.48;;;;;;;;;;5132154;27;20055;-71
2023/01/25 14:31:19;;;;;;;5.78;1.60;;;;;;;;;;5136498;27;20122;-70
2023/01/25 14:33:53;;;;;;;4.60;1.20;;;;;;;;;;5138731;27;20058;-69
2023/01/25 14:36:20;;;;;;;4.60;1.40;;;;;;;;;;5130593;27;20319;-77
2023/01/25 14:38:47;;;;;;;5.40;1.80;;;;;;;;;;5131070;27;20062;-71
2023/01/25 14:41:31;;;;;;;2.97;1.55;;;;;;;;;;5131288;27;20049;-73
2023/01/25 14:44:02;;;;;;;9.10;1.42;;;;;;;;;;5129318;27;20183;-73
2023/01/25 14:46:30;;;;;;;6.28;1.50;;;;;;;;;;5136381;27;20069;-70
2023/01/25 14:49:12;;;;;;;4.75;1.80;;;;;;;;;;5134255;27;20491;-72
2023/01/25 14:51:58;;;;;;;5.53;2.47;;;;;;;;;;5131868;27;20036;-71
2023/01/25 14:54:35;;;;;;;2.70;1.23;;;;;;;;;;5118785;27;20057;-73
2023/01/25 14:57:03;;;;;;;5.82;1.58;;;;;;;;;;5129777;27;20050;-71
2023/01/25 14:59:30;;;;;;;3.70;1.73;;;;;;;;;;5139103;27;20117;-73
2023/01/25 15:02:00;;;;;;;4.72;1.70;;;;;;;;;;5135598;27;20126;-72
2023/01/25 15:04:26;;;;;;;3.65;1.63;;;;;;;;;;5133678;27;20055;-78
2023/01/25 15:06:54;;;;;;;3.88;1.30;;;;;;;;;;5133378;27;20057;-78